sensor_id;sensor_type;location;lat;lon;timestamp;temperature;humidity
10231;DHT22;62604;49.432;8.680;2022-10-23T09:07:33;18.90;90.00
10231;DHT22;62604;49.432;8.680;2022-10-23T09:10:18;20.40;76.80
10231;DHT22;62604;49.432;8.680;2022-10-23T09:12:49;20.70;76.30
10231;DHT22;62604;49.432;8.680;2022-10-23T09:15:26;20.40;77.60
10231;DHT22;62604;49.432;8.680;2022-10-23T09:17:57;20.50;77.30
10231;DHT22;62604;49.432;8.680;2022-10-23T09:20:26;20.80;75.70
10231;DHT22;62604;49.432;8.680;2022-10-23T09:22:58;22.00;69.50
10231;DHT22;62604;49.432;8.680;2022-10-23T09:25:30;22.00;67.50
10231;DHT22;62604;49.432;8.680;2022-10-23T09:27:59;22.60;63.60
10231;DHT22;62604;49.432;8.680;2022-10-23T09:30:30;23.50;60.90
10231;DHT22;62604;49.432;8.680;2022-10-23T09:32:57;24.10;57.60
10231;DHT22;62604;49.432;8.680;2022-10-23T09:35:27;24.90;53.50
10231;DHT22;62604;49.432;8.680;2022-10-23T09:37:56;25.40;49.60
10231;DHT22;62604;49.432;8.680;2022-10-23T09:40:29;26.40;45.50
10231;DHT22;62604;49.432;8.680;2022-10-23T09:43:00;26.60;43.00
10231;DHT22;62604;49.432;8.680;2022-10-23T09:45:30;27.40;40.50
10231;DHT22;62604;49.432;8.680;2022-10-23T09:48:05;27.80;37.20
10231;DHT22;62604;49.432;8.680;2022-10-23T09:50:34;28.70;33.80
10231;DHT22;62604;49.432;8.680;2022-10-23T09:53:02;29.10;32.20
10231;DHT22;62604;49.432;8.680;2022-10-23T09:55:29;27.00;31.90
10231;DHT22;62604;49.432;8.680;2022-10-23T09:57:56;25.90;35.10
10231;DHT22;62604;49.432;8.680;2022-10-23T10:00:24;25.00;38.10
10231;DHT22;62604;49.432;8.680;2022-10-23T10:02:57;23.20;44.50
10231;DHT22;62604;49.432;8.680;2022-10-23T10:05:26;23.00;50.10
10231;DHT22;62604;49.432;8.680;2022-10-23T10:07:56;23.50;49.50
10231;DHT22;62604;49.432;8.680;2022-10-23T10:10:29;24.10;48.50
10231;DHT22;62604;49.432;8.680;2022-10-23T10:13:03;24.80;45.20
10231;DHT22;62604;49.432;8.680;2022-10-23T10:15:37;25.50;42.90
10231;DHT22;62604;49.432;8.680;2022-10-23T10:18:13;25.30;42.20
10231;DHT22;62604;49.432;8.680;2022-10-23T10:20:52;25.80;41.00
10231;DHT22;62604;49.432;8.680;2022-10-23T10:23:27;24.80;42.00
10231;DHT22;62604;49.432;8.680;2022-10-23T10:26:01;24.10;44.40
10231;DHT22;62604;49.432;8.680;2022-10-23T10:28:50;23.40;45.70
10231;DHT22;62604;49.432;8.680;2022-10-23T10:31:26;22.70;48.20
10231;DHT22;62604;49.432;8.680;2022-10-23T10:34:05;22.30;51.00
10231;DHT22;62604;49.432;8.680;2022-10-23T10:36:48;22.00;53.40
10231;DHT22;62604;49.432;8.680;2022-10-23T10:39:26;21.70;54.80
10231;DHT22;62604;49.432;8.680;2022-10-23T10:42:13;21.40;56.10
10231;DHT22;62604;49.432;8.680;2022-10-23T10:44:52;21.50;58.90
10231;DHT22;62604;49.432;8.680;2022-10-23T10:47:29;21.50;58.10
10231;DHT22;62604;49.432;8.680;2022-10-23T10:50:05;21.80;59.00
10231;DHT22;62604;49.432;8.680;2022-10-23T10:52:42;22.00;58.20
10231;DHT22;62604;49.432;8.680;2022-10-23T10:55:17;22.20;56.30
10231;DHT22;62604;49.432;8.680;2022-10-23T10:57:49;22.30;55.90
10231;DHT22;62604;49.432;8.680;2022-10-23T11:00:19;22.70;53.90
10231;DHT22;62604;49.432;8.680;2022-10-23T11:02:47;22.90;52.90
10231;DHT22;62604;49.432;8.680;2022-10-23T11:05:24;22.80;52.80
10231;DHT22;62604;49.432;8.680;2022-10-23T11:07:55;22.70;51.60
10231;DHT22;62604;49.432;8.680;2022-10-23T11:10:26;22.50;52.20
10231;DHT22;62604;49.432;8.680;2022-10-23T11:12:56;22.60;51.70
10231;DHT22;62604;49.432;8.680;2022-10-23T11:15:27;22.90;51.50
10231;DHT22;62604;49.432;8.680;2022-10-23T11:17:56;22.40;52.20
10231;DHT22;62604;49.432;8.680;2022-10-23T11:20:38;22.30;52.90
10231;DHT22;62604;49.432;8.680;2022-10-23T11:23:21;22.40;54.80
10231;DHT22;62604;49.432;8.680;2022-10-23T11:26:03;22.30;53.90
10231;DHT22;62604;49.432;8.680;2022-10-23T11:28:47;22.10;55.00
10231;DHT22;62604;49.432;8.680;2022-10-23T11:31:24;22.20;53.90
10231;DHT22;62604;49.432;8.680;2022-10-23T11:36:45;22.50;55.70
10231;DHT22;62604;49.432;8.680;2022-10-23T11:39:20;22.40;56.80
10231;DHT22;62604;49.432;8.680;2022-10-23T11:41:51;22.20;57.40
10231;DHT22;62604;49.432;8.680;2022-10-23T11:44:38;22.40;57.20
10231;DHT22;62604;49.432;8.680;2022-10-23T11:47:29;21.90;57.30
10231;DHT22;62604;49.432;8.680;2022-10-23T11:50:29;21.50;60.10
10231;DHT22;62604;49.432;8.680;2022-10-23T11:53:02;21.70;60.00
10231;DHT22;62604;49.432;8.680;2022-10-23T11:55:32;21.80;59.80
10231;DHT22;62604;49.432;8.680;2022-10-23T11:58:22;22.40;60.20
10231;DHT22;62604;49.432;8.680;2022-10-23T12:01:01;23.00;56.20
10231;DHT22;62604;49.432;8.680;2022-10-23T12:03:37;23.90;53.40
10231;DHT22;62604;49.432;8.680;2022-10-23T12:06:05;25.30;49.80
10231;DHT22;62604;49.432;8.680;2022-10-23T12:08:36;26.40;45.50
10231;DHT22;62604;49.432;8.680;2022-10-23T12:11:04;27.00;43.50
10231;DHT22;62604;49.432;8.680;2022-10-23T12:13:45;27.20;40.10
10231;DHT22;62604;49.432;8.680;2022-10-23T12:16:13;27.40;38.80
10231;DHT22;62604;49.432;8.680;2022-10-23T12:18:49;28.00;37.10
10231;DHT22;62604;49.432;8.680;2022-10-23T12:21:19;27.90;35.20
10231;DHT22;62604;49.432;8.680;2022-10-23T12:24:16;27.40;35.20
10231;DHT22;62604;49.432;8.680;2022-10-23T12:27:04;27.00;36.70
10231;DHT22;62604;49.432;8.680;2022-10-23T12:29:51;26.20;39.10
10231;DHT22;62604;49.432;8.680;2022-10-23T12:35:26;25.20;42.70
10231;DHT22;62604;49.432;8.680;2022-10-23T12:38:10;24.30;44.60
10231;DHT22;62604;49.432;8.680;2022-10-23T12:40:39;23.90;46.50
10231;DHT22;62604;49.432;8.680;2022-10-23T12:43:21;24.00;47.70
10231;DHT22;62604;49.432;8.680;2022-10-23T12:45:49;23.80;48.90
10231;DHT22;62604;49.432;8.680;2022-10-23T12:48:26;23.90;48.60
10231;DHT22;62604;49.432;8.680;2022-10-23T12:50:55;24.10;49.60
10231;DHT22;62604;49.432;8.680;2022-10-23T12:53:22;24.20;49.00
10231;DHT22;62604;49.432;8.680;2022-10-23T12:55:53;24.40;49.10
10231;DHT22;62604;49.432;8.680;2022-10-23T12:58:23;24.10;47.70
10231;DHT22;62604;49.432;8.680;2022-10-23T13:00:51;24.00;48.50
10231;DHT22;62604;49.432;8.680;2022-10-23T13:03:22;24.00;49.20
10231;DHT22;62604;49.432;8.680;2022-10-23T13:05:50;24.20;49.90
10231;DHT22;62604;49.432;8.680;2022-10-23T13:08:19;24.50;47.10
10231;DHT22;62604;49.432;8.680;2022-10-23T13:10:47;24.40;46.60
10231;DHT22;62604;49.432;8.680;2022-10-23T13:13:19;24.50;47.10
10231;DHT22;62604;49.432;8.680;2022-10-23T13:15:47;24.50;48.40
10231;DHT22;62604;49.432;8.680;2022-10-23T13:18:15;24.20;49.20
10231;DHT22;62604;49.432;8.680;2022-10-23T13:20:56;24.10;48.60
10231;DHT22;62604;49.432;8.680;2022-10-23T13:23:27;23.80;49.90
10231;DHT22;62604;49.432;8.680;2022-10-23T13:25:58;23.50;51.80
10231;DHT22;62604;49.432;8.680;2022-10-23T13:28:27;23.40;52.20
10231;DHT22;62604;49.432;8.680;2022-10-23T13:31:06;23.40;53.70
10231;DHT22;62604;49.432;8.680;2022-10-23T13:33:49;23.30;52.70
10231;DHT22;62604;49.432;8.680;2022-10-23T13:36:23;23.20;52.90
10231;DHT22;62604;49.432;8.680;2022-10-23T13:39:00;23.00;53.60
10231;DHT22;62604;49.432;8.680;2022-10-23T13:41:32;22.80;53.10
10231;DHT22;62604;49.432;8.680;2022-10-23T13:44:00;22.60;53.50
10231;DHT22;62604;49.432;8.680;2022-10-23T13:46:27;22.50;54.50
10231;DHT22;62604;49.432;8.680;2022-10-23T13:48:54;22.40;56.00
10231;DHT22;62604;49.432;8.680;2022-10-23T13:51:26;22.40;57.80
10231;DHT22;62604;49.432;8.680;2022-10-23T13:53:53;22.40;58.60
10231;DHT22;62604;49.432;8.680;2022-10-23T13:56:23;22.40;58.10
10231;DHT22;62604;49.432;8.680;2022-10-23T13:58:50;22.30;57.60
10231;DHT22;62604;49.432;8.680;2022-10-23T14:01:21;22.20;58.30
10231;DHT22;62604;49.432;8.680;2022-10-23T14:03:48;22.00;59.90
10231;DHT22;62604;49.432;8.680;2022-10-23T14:06:15;21.90;62.40
10231;DHT22;62604;49.432;8.680;2022-10-23T14:08:44;21.80;62.50
10231;DHT22;62604;49.432;8.680;2022-10-23T14:11:12;21.70;62.70
10231;DHT22;62604;49.432;8.680;2022-10-23T14:13:39;21.60;62.40
10231;DHT22;62604;49.432;8.680;2022-10-23T14:16:08;21.50;63.60
10231;DHT22;62604;49.432;8.680;2022-10-23T14:18:37;21.50;64.00
10231;DHT22;62604;49.432;8.680;2022-10-23T14:21:05;21.40;65.20
10231;DHT22;62604;49.432;8.680;2022-10-23T14:23:33;21.30;67.30
10231;DHT22;62604;49.432;8.680;2022-10-23T14:26:05;21.30;66.50
10231;DHT22;62604;49.432;8.680;2022-10-23T14:28:32;21.20;67.80
10231;DHT22;62604;49.432;8.680;2022-10-23T14:31:03;21.10;67.50
10231;DHT22;62604;49.432;8.680;2022-10-23T14:33:30;21.10;66.70
10231;DHT22;62604;49.432;8.680;2022-10-23T14:35:57;21.00;68.10
10231;DHT22;62604;49.432;8.680;2022-10-23T14:38:24;20.90;69.50
10231;DHT22;62604;49.432;8.680;2022-10-23T14:40:51;20.90;69.40
10231;DHT22;62604;49.432;8.680;2022-10-23T14:43:19;20.80;70.10
10231;DHT22;62604;49.432;8.680;2022-10-23T14:45:46;20.70;71.70
10231;DHT22;62604;49.432;8.680;2022-10-23T14:48:13;20.70;70.50
10231;DHT22;62604;49.432;8.680;2022-10-23T14:50:42;20.80;69.60
10231;DHT22;62604;49.432;8.680;2022-10-23T14:53:09;20.70;71.40
10231;DHT22;62604;49.432;8.680;2022-10-23T14:55:37;20.70;72.70
10231;DHT22;62604;49.432;8.680;2022-10-23T14:58:04;20.70;70.20
10231;DHT22;62604;49.432;8.680;2022-10-23T15:00:32;20.80;71.70
10231;DHT22;62604;49.432;8.680;2022-10-23T15:02:59;20.80;71.20
10231;DHT22;62604;49.432;8.680;2022-10-23T15:05:26;20.80;71.70
10231;DHT22;62604;49.432;8.680;2022-10-23T15:07:54;20.70;72.80
10231;DHT22;62604;49.432;8.680;2022-10-23T15:10:21;20.70;73.60
10231;DHT22;62604;49.432;8.680;2022-10-23T15:12:48;20.60;74.70
10231;DHT22;62604;49.432;8.680;2022-10-23T15:15:14;20.60;76.20
10231;DHT22;62604;49.432;8.680;2022-10-23T15:17:43;20.50;76.40
10231;DHT22;62604;49.432;8.680;2022-10-23T15:20:10;20.40;77.40
10231;DHT22;62604;49.432;8.680;2022-10-23T15:22:38;20.30;78.10
10231;DHT22;62604;49.432;8.680;2022-10-23T15:25:06;20.30;79.80
10231;DHT22;62604;49.432;8.680;2022-10-23T15:27:33;20.20;81.80
10231;DHT22;62604;49.432;8.680;2022-10-23T15:30:00;20.20;81.50
10231;DHT22;62604;49.432;8.680;2022-10-23T15:32:27;20.20;81.10
10231;DHT22;62604;49.432;8.680;2022-10-23T15:34:55;20.20;81.20
10231;DHT22;62604;49.432;8.680;2022-10-23T15:37:24;20.20;81.30
10231;DHT22;62604;49.432;8.680;2022-10-23T15:39:51;20.20;82.00
10231;DHT22;62604;49.432;8.680;2022-10-23T15:42:18;20.20;80.30
10231;DHT22;62604;49.432;8.680;2022-10-23T15:44:45;20.20;82.00
10231;DHT22;62604;49.432;8.680;2022-10-23T15:47:12;20.10;83.20
10231;DHT22;62604;49.432;8.680;2022-10-23T15:49:39;20.00;84.10
10231;DHT22;62604;49.432;8.680;2022-10-23T15:52:08;19.90;84.80
10231;DHT22;62604;49.432;8.680;2022-10-23T15:54:35;20.00;83.60
10231;DHT22;62604;49.432;8.680;2022-10-23T15:57:03;20.00;84.30
10231;DHT22;62604;49.432;8.680;2022-10-23T15:59:30;19.90;84.20
10231;DHT22;62604;49.432;8.680;2022-10-23T16:01:57;20.00;84.30
10231;DHT22;62604;49.432;8.680;2022-10-23T16:04:24;19.90;85.60
10231;DHT22;62604;49.432;8.680;2022-10-23T16:06:53;20.00;84.70
10231;DHT22;62604;49.432;8.680;2022-10-23T16:09:21;20.00;84.80
10231;DHT22;62604;49.432;8.680;2022-10-23T16:11:48;20.00;84.40
10231;DHT22;62604;49.432;8.680;2022-10-23T16:14:16;19.90;84.90
10231;DHT22;62604;49.432;8.680;2022-10-23T16:16:43;19.90;86.30
10231;DHT22;62604;49.432;8.680;2022-10-23T16:19:10;19.80;86.80
10231;DHT22;62604;49.432;8.680;2022-10-23T16:21:38;19.80;87.40
10231;DHT22;62604;49.432;8.680;2022-10-23T16:24:06;19.70;88.20
10231;DHT22;62604;49.432;8.680;2022-10-23T16:26:36;19.60;89.50
10231;DHT22;62604;49.432;8.680;2022-10-23T16:29:05;19.60;89.70
10231;DHT22;62604;49.432;8.680;2022-10-23T16:31:32;19.70;89.10
10231;DHT22;62604;49.432;8.680;2022-10-23T16:34:01;19.60;89.70
10231;DHT22;62604;49.432;8.680;2022-10-23T16:36:29;19.80;87.90
10231;DHT22;62604;49.432;8.680;2022-10-23T16:38:57;20.00;85.20
10231;DHT22;62604;49.432;8.680;2022-10-23T16:41:24;20.00;85.40
10231;DHT22;62604;49.432;8.680;2022-10-23T16:43:52;20.00;86.20
10231;DHT22;62604;49.432;8.680;2022-10-23T16:46:21;19.90;86.80
10231;DHT22;62604;49.432;8.680;2022-10-23T16:48:54;19.80;88.40
10231;DHT22;62604;49.432;8.680;2022-10-23T16:51:23;19.80;88.50
10231;DHT22;62604;49.432;8.680;2022-10-23T16:53:51;19.80;89.00
10231;DHT22;62604;49.432;8.680;2022-10-23T16:56:19;19.70;89.50
10231;DHT22;62604;49.432;8.680;2022-10-23T16:58:47;19.80;88.20
10231;DHT22;62604;49.432;8.680;2022-10-23T17:01:17;19.80;87.50
10231;DHT22;62604;49.432;8.680;2022-10-23T17:03:45;20.00;85.50
10231;DHT22;62604;49.432;8.680;2022-10-23T17:06:14;20.10;84.50
10231;DHT22;62604;49.432;8.680;2022-10-23T17:08:41;20.30;82.00
10231;DHT22;62604;49.432;8.680;2022-10-23T17:11:09;20.60;79.40
10231;DHT22;62604;49.432;8.680;2022-10-23T17:13:38;20.60;79.60
10231;DHT22;62604;49.432;8.680;2022-10-23T17:16:08;20.60;80.20
10231;DHT22;62604;49.432;8.680;2022-10-23T17:18:38;20.70;78.70
10231;DHT22;62604;49.432;8.680;2022-10-23T17:21:05;20.80;77.90
10231;DHT22;62604;49.432;8.680;2022-10-23T17:23:33;20.90;76.30
10231;DHT22;62604;49.432;8.680;2022-10-23T17:26:00;21.00;75.00
10231;DHT22;62604;49.432;8.680;2022-10-23T17:28:28;21.10;73.00
10231;DHT22;62604;49.432;8.680;2022-10-23T17:30:56;21.40;69.40
10231;DHT22;62604;49.432;8.680;2022-10-23T17:33:24;21.40;71.80
10231;DHT22;62604;49.432;8.680;2022-10-23T17:35:53;21.20;73.80
10231;DHT22;62604;49.432;8.680;2022-10-23T17:38:20;21.50;69.20
10231;DHT22;62604;49.432;8.680;2022-10-23T17:40:47;21.70;68.30
10231;DHT22;62604;49.432;8.680;2022-10-23T17:43:14;21.60;69.40
10231;DHT22;62604;49.432;8.680;2022-10-23T17:45:42;21.60;69.30
10231;DHT22;62604;49.432;8.680;2022-10-23T17:48:10;21.60;72.20
10231;DHT22;62604;49.432;8.680;2022-10-23T17:50:38;21.20;83.00
10231;DHT22;62604;49.432;8.680;2022-10-23T17:53:06;20.70;91.00
10231;DHT22;62604;49.432;8.680;2022-10-23T17:55:36;20.10;98.40
10231;DHT22;62604;49.432;8.680;2022-10-23T17:58:03;19.60;99.90
10231;DHT22;62604;49.432;8.680;2022-10-23T18:00:30;19.00;99.90
10231;DHT22;62604;49.432;8.680;2022-10-23T18:02:58;18.60;99.90
10231;DHT22;62604;49.432;8.680;2022-10-23T18:05:26;18.20;99.90
10231;DHT22;62604;49.432;8.680;2022-10-23T18:07:55;17.80;99.90
10231;DHT22;62604;49.432;8.680;2022-10-23T18:10:23;17.60;99.90
10231;DHT22;62604;49.432;8.680;2022-10-23T18:12:50;17.40;99.90
10231;DHT22;62604;49.432;8.680;2022-10-23T18:15:17;17.20;99.90
10231;DHT22;62604;49.432;8.680;2022-10-23T18:17:44;17.10;99.90
10231;DHT22;62604;49.432;8.680;2022-10-23T18:20:11;17.10;99.90
10231;DHT22;62604;49.432;8.680;2022-10-23T18:22:39;17.00;99.90
10231;DHT22;62604;49.432;8.680;2022-10-23T18:25:06;16.90;99.90
10231;DHT22;62604;49.432;8.680;2022-10-23T18:27:35;16.90;99.90
10231;DHT22;62604;49.432;8.680;2022-10-23T18:30:04;16.90;99.90
10231;DHT22;62604;49.432;8.680;2022-10-23T18:32:32;16.90;99.90
10231;DHT22;62604;49.432;8.680;2022-10-23T18:34:58;16.90;99.90
10231;DHT22;62604;49.432;8.680;2022-10-23T18:37:25;16.90;99.90
10231;DHT22;62604;49.432;8.680;2022-10-23T18:39:52;16.90;99.90
10231;DHT22;62604;49.432;8.680;2022-10-23T18:42:20;17.00;99.90
10231;DHT22;62604;49.432;8.680;2022-10-23T18:44:49;17.10;99.90
10231;DHT22;62604;49.432;8.680;2022-10-23T18:47:16;17.10;99.90
10231;DHT22;62604;49.432;8.680;2022-10-23T18:49:42;17.20;99.90
10231;DHT22;62604;49.432;8.680;2022-10-23T18:52:10;17.20;99.90
10231;DHT22;62604;49.432;8.680;2022-10-23T18:54:37;17.20;99.90
10231;DHT22;62604;49.432;8.680;2022-10-23T18:57:04;17.50;99.90
10231;DHT22;62604;49.432;8.680;2022-10-23T18:59:31;17.60;99.90
10231;DHT22;62604;49.432;8.680;2022-10-23T19:01:59;17.50;99.90
10231;DHT22;62604;49.432;8.680;2022-10-23T19:04:26;17.50;99.90
10231;DHT22;62604;49.432;8.680;2022-10-23T19:06:53;17.50;99.90
10231;DHT22;62604;49.432;8.680;2022-10-23T19:09:22;17.40;99.90
10231;DHT22;62604;49.432;8.680;2022-10-23T19:11:49;17.40;99.90
10231;DHT22;62604;49.432;8.680;2022-10-23T19:14:15;17.40;99.90
10231;DHT22;62604;49.432;8.680;2022-10-23T19:16:48;17.40;99.90
10231;DHT22;62604;49.432;8.680;2022-10-23T19:19:23;17.30;99.90
10231;DHT22;62604;49.432;8.680;2022-10-23T19:21:51;17.40;99.90
10231;DHT22;62604;49.432;8.680;2022-10-23T19:24:22;17.40;99.90
10231;DHT22;62604;49.432;8.680;2022-10-23T19:26:50;17.60;99.90
10231;DHT22;62604;49.432;8.680;2022-10-23T19:29:19;17.70;99.90
10231;DHT22;62604;49.432;8.680;2022-10-23T19:31:48;17.80;99.90
10231;DHT22;62604;49.432;8.680;2022-10-23T19:34:15;18.00;99.90
10231;DHT22;62604;49.432;8.680;2022-10-23T19:36:46;18.00;99.90
10231;DHT22;62604;49.432;8.680;2022-10-23T19:39:13;18.00;99.90
10231;DHT22;62604;49.432;8.680;2022-10-23T19:41:40;18.00;99.90
10231;DHT22;62604;49.432;8.680;2022-10-23T19:44:06;18.00;99.90
10231;DHT22;62604;49.432;8.680;2022-10-23T19:46:34;18.00;99.90
10231;DHT22;62604;49.432;8.680;2022-10-23T19:49:01;18.00;99.90
10231;DHT22;62604;49.432;8.680;2022-10-23T19:51:28;18.00;99.90
10231;DHT22;62604;49.432;8.680;2022-10-23T19:53:57;18.00;99.90
10231;DHT22;62604;49.432;8.680;2022-10-23T19:56:24;18.10;99.90
10231;DHT22;62604;49.432;8.680;2022-10-23T19:58:51;18.10;99.90
10231;DHT22;62604;49.432;8.680;2022-10-23T20:01:21;18.10;99.90
10231;DHT22;62604;49.432;8.680;2022-10-23T20:03:48;18.10;99.90
10231;DHT22;62604;49.432;8.680;2022-10-23T20:06:17;18.10;99.90
10231;DHT22;62604;49.432;8.680;2022-10-23T20:08:45;18.10;99.90
10231;DHT22;62604;49.432;8.680;2022-10-23T20:11:17;18.10;99.90
10231;DHT22;62604;49.432;8.680;2022-10-23T20:13:45;18.10;99.90
10231;DHT22;62604;49.432;8.680;2022-10-23T20:16:16;18.00;99.90
10231;DHT22;62604;49.432;8.680;2022-10-23T20:18:43;18.00;99.90
10231;DHT22;62604;49.432;8.680;2022-10-23T20:21:10;18.00;99.90
10231;DHT22;62604;49.432;8.680;2022-10-23T20:23:37;18.10;99.90
10231;DHT22;62604;49.432;8.680;2022-10-23T20:26:04;18.00;99.90
10231;DHT22;62604;49.432;8.680;2022-10-23T20:28:41;18.10;99.90
10231;DHT22;62604;49.432;8.680;2022-10-23T20:31:14;18.10;99.90
10231;DHT22;62604;49.432;8.680;2022-10-23T20:33:43;18.20;99.90
10231;DHT22;62604;49.432;8.680;2022-10-23T20:36:25;18.20;99.90
10231;DHT22;62604;49.432;8.680;2022-10-23T20:38:54;18.20;99.90
10231;DHT22;62604;49.432;8.680;2022-10-23T20:41:24;18.20;99.90
10231;DHT22;62604;49.432;8.680;2022-10-23T20:43:56;18.10;99.90
10231;DHT22;62604;49.432;8.680;2022-10-23T20:46:28;18.20;99.90
10231;DHT22;62604;49.432;8.680;2022-10-23T20:49:04;18.20;99.90
10231;DHT22;62604;49.432;8.680;2022-10-23T20:51:33;18.30;99.90
10231;DHT22;62604;49.432;8.680;2022-10-23T20:54:10;18.30;99.90
10231;DHT22;62604;49.432;8.680;2022-10-23T20:56:38;18.20;99.90
10231;DHT22;62604;49.432;8.680;2022-10-23T20:59:14;18.20;99.90
10231;DHT22;62604;49.432;8.680;2022-10-23T21:01:48;18.20;99.90
10231;DHT22;62604;49.432;8.680;2022-10-23T21:04:28;18.00;99.90
10231;DHT22;62604;49.432;8.680;2022-10-23T21:07:07;18.10;99.90
10231;DHT22;62604;49.432;8.680;2022-10-23T21:09:39;18.00;99.90
10231;DHT22;62604;49.432;8.680;2022-10-23T21:12:09;17.90;99.90
10231;DHT22;62604;49.432;8.680;2022-10-23T21:14:37;17.70;99.90
10231;DHT22;62604;49.432;8.680;2022-10-23T21:17:05;17.60;99.90
10231;DHT22;62604;49.432;8.680;2022-10-23T21:19:35;17.50;99.90
10231;DHT22;62604;49.432;8.680;2022-10-23T21:22:06;17.50;99.90
10231;DHT22;62604;49.432;8.680;2022-10-23T21:24:37;17.60;99.90
10231;DHT22;62604;49.432;8.680;2022-10-23T21:27:07;17.70;99.90
10231;DHT22;62604;49.432;8.680;2022-10-23T21:29:37;17.90;99.90
10231;DHT22;62604;49.432;8.680;2022-10-23T21:32:06;17.90;99.90
10231;DHT22;62604;49.432;8.680;2022-10-23T21:34:33;18.00;99.90
10231;DHT22;62604;49.432;8.680;2022-10-23T21:37:04;17.80;99.90
10231;DHT22;62604;49.432;8.680;2022-10-23T21:39:34;17.80;99.90
10231;DHT22;62604;49.432;8.680;2022-10-23T21:42:05;17.70;99.90
10231;DHT22;62604;49.432;8.680;2022-10-23T21:44:34;17.60;99.90
10231;DHT22;62604;49.432;8.680;2022-10-23T21:47:06;17.50;99.90
10231;DHT22;62604;49.432;8.680;2022-10-23T21:49:39;17.40;99.90
10231;DHT22;62604;49.432;8.680;2022-10-23T21:52:06;17.40;99.90
10231;DHT22;62604;49.432;8.680;2022-10-23T21:54:35;17.30;99.90
10231;DHT22;62604;49.432;8.680;2022-10-23T21:57:12;17.30;99.90
10231;DHT22;62604;49.432;8.680;2022-10-23T21:59:40;17.20;99.90
10231;DHT22;62604;49.432;8.680;2022-10-23T22:02:09;17.20;99.90
10231;DHT22;62604;49.432;8.680;2022-10-23T22:04:38;17.10;99.90
10231;DHT22;62604;49.432;8.680;2022-10-23T22:07:06;17.10;99.90
10231;DHT22;62604;49.432;8.680;2022-10-23T22:09:41;17.00;99.90
10231;DHT22;62604;49.432;8.680;2022-10-23T22:12:09;16.90;99.90
10231;DHT22;62604;49.432;8.680;2022-10-23T22:14:40;16.90;99.90
10231;DHT22;62604;49.432;8.680;2022-10-23T22:17:08;16.90;99.90
10231;DHT22;62604;49.432;8.680;2022-10-23T22:19:36;16.90;99.90
10231;DHT22;62604;49.432;8.680;2022-10-23T22:22:12;16.90;99.90
10231;DHT22;62604;49.432;8.680;2022-10-23T22:24:41;16.90;99.90
10231;DHT22;62604;49.432;8.680;2022-10-23T22:27:10;16.90;99.90
10231;DHT22;62604;49.432;8.680;2022-10-23T22:29:45;17.00;99.90
10231;DHT22;62604;49.432;8.680;2022-10-23T22:32:24;17.00;99.90
10231;DHT22;62604;49.432;8.680;2022-10-23T22:34:52;17.00;99.90
10231;DHT22;62604;49.432;8.680;2022-10-23T22:37:20;17.00;99.90
10231;DHT22;62604;49.432;8.680;2022-10-23T22:39:49;17.00;99.90
10231;DHT22;62604;49.432;8.680;2022-10-23T22:42:18;17.30;99.90
10231;DHT22;62604;49.432;8.680;2022-10-23T22:44:46;17.60;99.90
10231;DHT22;62604;49.432;8.680;2022-10-23T22:47:16;17.60;99.90
10231;DHT22;62604;49.432;8.680;2022-10-23T22:49:49;17.60;99.90
10231;DHT22;62604;49.432;8.680;2022-10-23T22:52:18;17.60;99.90
10231;DHT22;62604;49.432;8.680;2022-10-23T22:54:46;17.60;99.90
10231;DHT22;62604;49.432;8.680;2022-10-23T22:57:13;17.70;99.90
10231;DHT22;62604;49.432;8.680;2022-10-23T22:59:46;17.90;99.90
10231;DHT22;62604;49.432;8.680;2022-10-23T23:02:18;17.80;99.90
10231;DHT22;62604;49.432;8.680;2022-10-23T23:04:49;17.60;99.90
10231;DHT22;62604;49.432;8.680;2022-10-23T23:07:17;17.50;99.90
10231;DHT22;62604;49.432;8.680;2022-10-23T23:09:56;17.40;99.90
10231;DHT22;62604;49.432;8.680;2022-10-23T23:12:26;17.30;99.90
10231;DHT22;62604;49.432;8.680;2022-10-23T23:14:53;17.30;99.90
10231;DHT22;62604;49.432;8.680;2022-10-23T23:17:21;17.20;99.90
10231;DHT22;62604;49.432;8.680;2022-10-23T23:19:50;17.20;99.90
10231;DHT22;62604;49.432;8.680;2022-10-23T23:22:18;17.10;99.90
10231;DHT22;62604;49.432;8.680;2022-10-23T23:24:45;17.10;99.90
10231;DHT22;62604;49.432;8.680;2022-10-23T23:27:14;17.00;99.90
10231;DHT22;62604;49.432;8.680;2022-10-23T23:29:41;17.10;99.90
10231;DHT22;62604;49.432;8.680;2022-10-23T23:32:09;17.30;99.90
10231;DHT22;62604;49.432;8.680;2022-10-23T23:34:36;17.30;99.90
10231;DHT22;62604;49.432;8.680;2022-10-23T23:37:05;17.40;99.90
10231;DHT22;62604;49.432;8.680;2022-10-23T23:39:32;17.40;99.90
10231;DHT22;62604;49.432;8.680;2022-10-23T23:42:00;17.30;99.90
10231;DHT22;62604;49.432;8.680;2022-10-23T23:44:29;17.40;99.90
10231;DHT22;62604;49.432;8.680;2022-10-23T23:46:57;17.40;99.90
10231;DHT22;62604;49.432;8.680;2022-10-23T23:49:26;17.40;99.90
10231;DHT22;62604;49.432;8.680;2022-10-23T23:51:56;17.50;99.90
10231;DHT22;62604;49.432;8.680;2022-10-23T23:54:24;17.30;99.90
10231;DHT22;62604;49.432;8.680;2022-10-23T23:56:55;17.40;99.90
10231;DHT22;62604;49.432;8.680;2022-10-23T23:59:25;17.30;99.90
